Check out our new BloomSky Weather System.

Active alerts

Galveston, TX
  Details for Galveston, TX Coastal Flood Advisory  +1 additional alert


Thunder radar  blitzortung!


Rain radar more information rain snow radar


Visit our other weather sites:

Template documentation
and downloads

And another site



Weather Underground History page Text

Daily Summary for January 27, 2018 Units:  English    Metric   Both
« Previous Day
Next Day »
Daily Weekly Monthly Yearly Custom
  High: Low: Average:
Temperature: TemperatureF °F 58.8 °F 61.8 °F
Dew Point: DewpointF °F 58.3 °F 61.4 °F
Humidity: Humidity % 95 % 98 %
Wind Speed: WindSpeedMPH mph 0.0 mph 0.5 mph
Wind Gust: WindSpeedGustMPH mph - -
Wind:- - SSE
Pressure: PressureIn in 30.10 in -
Precipitation: 0.55 in    
Historical Graphs
 
 
Tabular Data for January 27, 2018
Time Temperature Dew Point Pressure Wind Wind Speed Wind Gust Humidity Rainfall Rate (Hourly)
TemperatureF °F DewpointF °F PressureIn in Calm     Humidity % HourlyPrecipIn in
00:04 60.3 °F 58.8 °F 30.17 in Calm   4.0 mph 95 % 0.00 in
00:09 60.3 °F 58.8 °F 30.17 in ESE 2.0 mph 4.0 mph 95 % 0.00 in
00:14 60.3 °F 59.2 °F 30.17 in SE 2.0 mph 3.0 mph 96 % 0.00 in
00:19 60.3 °F 59.2 °F 30.17 in SE 2.0 mph 3.0 mph 96 % 0.00 in
00:24 60.3 °F 59.2 °F 30.17 in SE 2.0 mph 4.0 mph 96 % 0.00 in
00:29 60.3 °F 59.2 °F 30.17 in SE 1.0 mph 4.0 mph 96 % 0.00 in
00:34 60.3 °F 59.2 °F 30.17 in SE 2.0 mph 4.0 mph 96 % 0.00 in
00:39 60.3 °F 59.2 °F 30.17 in ESE 3.0 mph 5.0 mph 96 % 0.00 in
00:44 60.1 °F 59.0 °F 30.16 in SSE 1.0 mph 5.0 mph 96 % 0.00 in
00:49 60.1 °F 59.0 °F 30.16 in SE 1.0 mph 5.0 mph 96 % 0.00 in
00:54 60.1 °F 59.0 °F 30.15 in Calm   5.0 mph 96 % 0.00 in
00:59 60.1 °F 59.0 °F 30.15 in Calm   3.0 mph 96 % 0.00 in
01:04 60.1 °F 59.0 °F 30.15 in East 1.0 mph 3.0 mph 96 % 0.00 in
01:09 60.1 °F 59.2 °F 30.15 in Calm   3.0 mph 97 % 0.01 in
01:14 59.9 °F 59.0 °F 30.15 in SE 1.0 mph 3.0 mph 97 % 0.01 in
01:19 59.9 °F 59.0 °F 30.16 in Calm   2.0 mph 97 % 0.01 in
01:24 59.9 °F 59.0 °F 30.16 in SE 1.0 mph 1.0 mph 97 % 0.02 in
01:29 59.9 °F 59.0 °F 30.16 in Calm   1.0 mph 97 % 0.02 in
01:34 59.9 °F 59.0 °F 30.15 in Calm   1.0 mph 97 % 0.02 in
01:39 59.9 °F 59.0 °F 30.15 in Calm   1.0 mph 97 % 0.03 in
01:44 59.9 °F 59.0 °F 30.15 in NW 1.0 mph 1.0 mph 97 % 0.04 in
01:49 60.1 °F 59.2 °F 30.15 in NW 1.0 mph 2.0 mph 97 % 0.09 in
01:54 60.1 °F 59.2 °F 30.14 in Calm   3.0 mph 97 % 0.10 in
01:59 60.1 °F 59.2 °F 30.15 in NNW 1.0 mph 3.0 mph 97 % 0.10 in
02:04 60.1 °F 59.5 °F 30.14 in Calm   3.0 mph 98 % 0.10 in
02:09 60.1 °F 59.2 °F 30.14 in Calm   3.0 mph 97 % 0.09 in
02:14 59.9 °F 59.4 °F 30.14 in Calm   3.0 mph 98 % 0.09 in
02:19 59.9 °F 59.4 °F 30.14 in Calm   3.0 mph 98 % 0.09 in
02:24 60.1 °F 59.5 °F 30.14 in Calm   2.0 mph 98 % 0.08 in
02:29 60.1 °F 59.5 °F 30.15 in Calm   1.0 mph 98 % 0.08 in
02:34 60.1 °F 59.5 °F 30.15 in Calm   1.0 mph 98 % 0.08 in
02:39 60.1 °F 59.5 °F 30.14 in Calm   2.0 mph 98 % 0.07 in
02:44 60.1 °F 59.5 °F 30.14 in Calm   2.0 mph 98 % 0.07 in
02:49 60.1 °F 59.5 °F 30.14 in Calm   2.0 mph 98 % 0.02 in
02:54 59.9 °F 59.4 °F 30.14 in Calm   1.0 mph 98 % 0.01 in
02:59 59.9 °F 59.4 °F 30.14 in Calm   1.0 mph 98 % 0.01 in
03:04 59.9 °F 59.4 °F 30.14 in NNW 1.0 mph 1.0 mph 98 % 0.02 in
03:09 59.9 °F 59.4 °F 30.13 in Calm   2.0 mph 98 % 0.02 in
03:14 59.9 °F 59.4 °F 30.14 in Calm   2.0 mph 98 % 0.02 in
03:19 59.9 °F 59.4 °F 30.14 in Calm   2.0 mph 98 % 0.03 in
03:24 59.9 °F 59.4 °F 30.14 in ENE 1.0 mph 2.0 mph 98 % 0.04 in
03:29 59.7 °F 59.2 °F 30.14 in Calm   1.0 mph 98 % 0.04 in
03:34 59.7 °F 59.2 °F 30.13 in Calm   1.0 mph 98 % 0.04 in
03:39 59.7 °F 59.2 °F 30.13 in North 1.0 mph 1.0 mph 98 % 0.04 in
03:44 59.5 °F 59.0 °F 30.13 in Calm   2.0 mph 98 % 0.04 in
03:49 59.5 °F 59.0 °F 30.13 in North 1.0 mph 2.0 mph 98 % 0.04 in
03:55 59.5 °F 59.0 °F 30.13 in NW 2.0 mph 2.0 mph 98 % 0.05 in
03:59 59.4 °F 58.8 °F 30.13 in NNE 3.0 mph 3.0 mph 98 % 0.05 in
04:04 59.4 °F 58.8 °F 30.12 in Calm   3.0 mph 98 % 0.05 in
04:09 59.2 °F 58.6 °F 30.12 in North 2.0 mph 3.0 mph 98 % 0.05 in
04:15 59.2 °F 58.6 °F 30.12 in North 1.0 mph 3.0 mph 98 % 0.05 in
04:20 59.0 °F 58.5 °F 30.12 in Calm   3.0 mph 98 % 0.04 in
04:25 59.0 °F 58.5 °F 30.12 in Calm   3.0 mph 98 % 0.03 in
04:30 59.0 °F 58.5 °F 30.12 in North 2.0 mph 3.0 mph 98 % 0.03 in
04:35 59.0 °F 58.5 °F 30.11 in Calm   4.0 mph 98 % 0.03 in
04:40 58.8 °F 58.3 °F 30.11 in Calm   4.0 mph 98 % 0.02 in
04:45 58.8 °F 58.3 °F 30.11 in Calm   4.0 mph 98 % 0.02 in
04:50 58.8 °F 58.3 °F 30.12 in Calm   3.0 mph 98 % 0.02 in
04:55 58.8 °F 58.3 °F 30.12 in Calm   3.0 mph 98 % 0.01 in
05:00 58.8 °F 58.3 °F 30.12 in Calm   3.0 mph 98 % 0.00 in
05:05 58.8 °F 58.3 °F 30.12 in Calm   3.0 mph 98 % 0.00 in
05:10 58.8 °F 58.3 °F 30.12 in Calm   1.0 mph 98 % 0.00 in
05:15 58.8 °F 58.3 °F 30.12 in Calm   2.0 mph 98 % 0.00 in
05:20 59.0 °F 58.6 °F 30.12 in Calm   3.0 mph 99 % 0.00 in
05:25 59.0 °F 58.6 °F 30.12 in Calm   3.0 mph 99 % 0.00 in
05:30 59.2 °F 58.8 °F 30.12 in Calm   3.0 mph 99 % 0.00 in
05:35 59.2 °F 58.8 °F 30.12 in Calm   3.0 mph 99 % 0.00 in
05:40 59.4 °F 59.0 °F 30.12 in Calm   2.0 mph 99 % 0.00 in
05:45 59.4 °F 59.0 °F 30.12 in Calm   2.0 mph 99 % 0.00 in
05:50 59.4 °F 59.0 °F 30.12 in NW 2.0 mph 3.0 mph 99 % 0.00 in
05:55 59.5 °F 59.2 °F 30.12 in Calm   3.0 mph 99 % 0.00 in
06:00 59.5 °F 59.2 °F 30.12 in North 1.0 mph 3.0 mph 99 % 0.00 in
06:05 59.5 °F 59.2 °F 30.12 in Calm   3.0 mph 99 % 0.00 in
06:10 59.7 °F 59.4 °F 30.12 in East 1.0 mph 3.0 mph 99 % 0.00 in
06:15 59.7 °F 59.4 °F 30.12 in NNE 1.0 mph 3.0 mph 99 % 0.00 in
06:20 59.7 °F 59.4 °F 30.12 in Calm   1.0 mph 99 % 0.00 in
06:25 59.7 °F 59.4 °F 30.12 in Calm   1.0 mph 99 % 0.00 in
06:30 59.7 °F 59.4 °F 30.12 in Calm   4.0 mph 99 % 0.00 in
06:35 59.9 °F 59.5 °F 30.13 in Calm   4.0 mph 99 % 0.00 in
06:40 60.1 °F 59.7 °F 30.13 in Calm   4.0 mph 99 % 0.00 in
06:45 60.1 °F 59.7 °F 30.13 in Calm   3.0 mph 99 % 0.00 in
06:50 60.1 °F 59.7 °F 30.13 in Calm   3.0 mph 99 % 0.00 in
06:55 60.1 °F 59.7 °F 30.13 in Calm   3.0 mph 99 % 0.00 in
07:00 60.1 °F 59.7 °F 30.13 in NNW 2.0 mph 3.0 mph 99 % 0.02 in
07:05 60.1 °F 59.7 °F 30.14 in Calm   3.0 mph 99 % 0.03 in
07:10 60.1 °F 59.7 °F 30.14 in Calm   3.0 mph 99 % 0.03 in
07:15 60.1 °F 59.7 °F 30.14 in Calm   3.0 mph 99 % 0.03 in
07:20 60.1 °F 59.7 °F 30.14 in NNW 1.0 mph 2.0 mph 99 % 0.03 in
07:25 60.1 °F 59.7 °F 30.14 in Calm   2.0 mph 99 % 0.04 in
07:30 60.1 °F 59.7 °F 30.14 in Calm   2.0 mph 99 % 0.04 in
07:35 60.1 °F 59.7 °F 30.14 in NE 1.0 mph 2.0 mph 99 % 0.05 in
07:40 60.3 °F 59.9 °F 30.15 in Calm   1.0 mph 99 % 0.05 in
07:45 60.3 °F 59.9 °F 30.15 in Calm   2.0 mph 99 % 0.06 in
07:50 60.3 °F 59.9 °F 30.15 in North 1.0 mph 2.0 mph 99 % 0.06 in
07:55 60.3 °F 59.9 °F 30.15 in East 1.0 mph 2.0 mph 99 % 0.07 in
08:00 60.3 °F 59.9 °F 30.15 in Calm   2.0 mph 99 % 0.05 in
08:05 60.3 °F 59.9 °F 30.16 in Calm   2.0 mph 99 % 0.04 in
08:10 60.3 °F 59.9 °F 30.16 in NNE 1.0 mph 2.0 mph 99 % 0.04 in
08:15 60.3 °F 59.9 °F 30.16 in North 1.0 mph 2.0 mph 99 % 0.04 in
08:20 60.4 °F 60.1 °F 30.16 in Calm   3.0 mph 99 % 0.04 in
08:25 60.4 °F 60.1 °F 30.16 in Calm   3.0 mph 99 % 0.03 in
08:30 60.4 °F 60.1 °F 30.16 in Calm   3.0 mph 99 % 0.03 in
08:35 60.4 °F 60.1 °F 30.16 in Calm   3.0 mph 99 % 0.02 in
08:40 60.4 °F 60.1 °F 30.17 in Calm   2.0 mph 99 % 0.02 in
08:45 60.4 °F 60.1 °F 30.17 in East 1.0 mph 2.0 mph 99 % 0.01 in
08:50 60.6 °F 60.3 °F 30.17 in Calm   3.0 mph 99 % 0.00 in
08:55 60.8 °F 60.4 °F 30.17 in NNW 1.0 mph 3.0 mph 99 % 0.00 in
09:00 61.0 °F 60.6 °F 30.17 in Calm   3.0 mph 99 % 0.00 in
09:05 61.2 °F 60.8 °F 30.17 in Calm   3.0 mph 99 % 0.00 in
09:10 61.2 °F 60.8 °F 30.17 in NE 2.0 mph 3.0 mph 99 % 0.00 in
09:15 61.3 °F 61.0 °F 30.17 in NNE 1.0 mph 3.0 mph 99 % 0.00 in
09:20 61.5 °F 61.2 °F 30.17 in Calm   4.0 mph 99 % 0.00 in
09:25 61.5 °F 61.2 °F 30.18 in Calm   4.0 mph 99 % 0.00 in
09:30 61.7 °F 61.3 °F 30.18 in ESE 2.0 mph 4.0 mph 99 % 0.00 in
09:35 61.7 °F 61.3 °F 30.18 in ENE 2.0 mph 4.0 mph 99 % 0.00 in
09:40 61.7 °F 61.3 °F 30.17 in Calm   4.0 mph 99 % 0.00 in
09:45 61.7 °F 61.3 °F 30.18 in Calm   4.0 mph 99 % 0.00 in
09:50 61.9 °F 61.5 °F 30.18 in East 2.0 mph 4.0 mph 99 % 0.00 in
09:55 61.9 °F 61.5 °F 30.18 in ENE 2.0 mph 4.0 mph 99 % 0.00 in
10:00 61.9 °F 61.5 °F 30.18 in ENE 1.0 mph 5.0 mph 99 % 0.00 in
10:05 61.9 °F 61.5 °F 30.18 in Calm   5.0 mph 99 % 0.00 in
10:10 62.1 °F 61.7 °F 30.18 in Calm   5.0 mph 99 % 0.00 in
10:15 62.1 °F 61.7 °F 30.19 in Calm   4.0 mph 99 % 0.00 in
10:20 62.1 °F 61.7 °F 30.19 in NNW 1.0 mph 4.0 mph 99 % 0.00 in
10:25 62.1 °F 61.7 °F 30.19 in ENE 5.0 mph 5.0 mph 99 % 0.00 in
10:26 62.1 °F 61.7 °F 30.19 in ESE 1.0 mph 4.0 mph 99 % 0.00 in
10:31 61.9 °F 61.5 °F 30.19 in NE 1.0 mph 5.0 mph 99 % 0.00 in
10:36 61.9 °F 61.5 °F 30.19 in Calm   5.0 mph 99 % 0.00 in
10:41 62.1 °F 61.7 °F 30.19 in Calm   5.0 mph 99 % 0.01 in
10:46 62.1 °F 61.7 °F 30.19 in North 1.0 mph 3.0 mph 99 % 0.01 in
10:51 62.1 °F 61.7 °F 30.18 in Calm   6.0 mph 99 % 0.01 in
10:56 62.1 °F 61.7 °F 30.18 in East 5.0 mph 6.0 mph 99 % 0.01 in
11:01 62.1 °F 61.7 °F 30.18 in Calm   6.0 mph 99 % 0.01 in
11:06 62.1 °F 61.7 °F 30.18 in Calm   6.0 mph 99 % 0.01 in
11:11 62.2 °F 61.9 °F 30.18 in Calm   6.0 mph 99 % 0.01 in
11:16 62.2 °F 61.9 °F 30.18 in NE 1.0 mph 4.0 mph 99 % 0.01 in
11:21 62.4 °F 62.1 °F 30.18 in Calm   4.0 mph 99 % 0.01 in
11:26 62.6 °F 62.2 °F 30.18 in Calm   4.0 mph 99 % 0.01 in
11:31 62.8 °F 62.4 °F 30.17 in SE 1.0 mph 4.0 mph 99 % 0.01 in
11:36 62.8 °F 62.4 °F 30.17 in Calm   4.0 mph 99 % 0.01 in
11:41 63.0 °F 62.6 °F 30.17 in East 1.0 mph 4.0 mph 99 % 0.00 in
11:46 63.0 °F 62.6 °F 30.17 in Calm   4.0 mph 99 % 0.00 in
11:51 63.0 °F 62.6 °F 30.17 in Calm   3.0 mph 99 % 0.00 in
11:56 63.0 °F 62.6 °F 30.17 in Calm   3.0 mph 99 % 0.01 in
12:01 63.0 °F 62.6 °F 30.17 in Calm   3.0 mph 99 % 0.01 in
12:06 63.0 °F 62.6 °F 30.17 in Calm   2.0 mph 99 % 0.01 in
12:11 63.0 °F 62.6 °F 30.16 in Calm   2.0 mph 99 % 0.02 in
12:16 63.0 °F 62.6 °F 30.16 in Calm   2.0 mph 99 % 0.03 in
12:21 63.1 °F 62.8 °F 30.15 in Calm   2.0 mph 99 % 0.04 in
12:26 63.3 °F 63.0 °F 30.14 in East 1.0 mph 4.0 mph 99 % 0.06 in
12:31 63.5 °F 63.1 °F 30.14 in ENE 1.0 mph 4.0 mph 99 % 0.07 in
12:36 63.5 °F 63.1 °F 30.14 in Calm   4.0 mph 99 % 0.08 in
12:41 63.7 °F 63.3 °F 30.14 in Calm   4.0 mph 99 % 0.08 in
12:46 63.7 °F 63.3 °F 30.14 in East 2.0 mph 4.0 mph 99 % 0.09 in
12:51 63.7 °F 63.3 °F 30.14 in NNW 1.0 mph 3.0 mph 99 % 0.09 in
12:56 63.7 °F 63.3 °F 30.13 in ESE 1.0 mph 3.0 mph 99 % 0.08 in
13:01 63.7 °F 63.3 °F 30.14 in Calm   3.0 mph 99 % 0.08 in
13:06 63.7 °F 63.3 °F 30.14 in East 1.0 mph 3.0 mph 99 % 0.09 in
13:11 63.7 °F 63.3 °F 30.13 in ESE 1.0 mph 3.0 mph 99 % 0.09 in
13:16 63.7 °F 63.3 °F 30.13 in Calm   2.0 mph 99 % 0.10 in
13:21 63.7 °F 63.3 °F 30.13 in ESE 1.0 mph 2.0 mph 99 % 0.10 in
13:26 63.7 °F 63.3 °F 30.12 in Calm   2.0 mph 99 % 0.09 in
13:31 63.9 °F 63.5 °F 30.13 in Calm   2.0 mph 99 % 0.09 in
13:36 63.9 °F 63.5 °F 30.13 in Calm   1.0 mph 99 % 0.09 in
13:41 64.0 °F 63.7 °F 30.13 in ESE 1.0 mph 1.0 mph 99 % 0.10 in
13:46 64.0 °F 63.7 °F 30.12 in ESE 1.0 mph 1.0 mph 99 % 0.10 in
13:51 64.0 °F 63.7 °F 30.12 in East 1.0 mph 2.0 mph 99 % 0.10 in
13:56 64.0 °F 63.7 °F 30.12 in ESE 1.0 mph 2.0 mph 99 % 0.10 in
14:01 64.2 °F 63.9 °F 30.11 in ENE 2.0 mph 3.0 mph 99 % 0.11 in
14:06 64.6 °F 64.2 °F 30.11 in Calm   3.0 mph 99 % 0.11 in
14:11 64.9 °F 64.9 °F 30.11 in Calm   3.0 mph 100 % 0.11 in
14:16 65.1 °F 64.8 °F 30.11 in Calm   3.0 mph 99 % 0.09 in
14:21 65.3 °F 64.9 °F 30.11 in Calm   2.0 mph 99 % 0.08 in
14:26 65.5 °F 65.1 °F 30.11 in Calm   2.0 mph 99 % 0.07 in
14:31 65.5 °F 65.1 °F 30.11 in North 1.0 mph 2.0 mph 99 % 0.06 in
14:36 65.1 °F 64.8 °F 30.11 in Calm   2.0 mph 99 % 0.05 in
14:41 64.9 °F 64.4 °F 30.11 in Calm   3.0 mph 98 % 0.04 in
14:46 64.8 °F 64.4 °F 30.11 in East 1.0 mph 3.0 mph 99 % 0.03 in
14:51 64.8 °F 64.4 °F 30.11 in North 1.0 mph 3.0 mph 99 % 0.04 in
14:56 64.8 °F 64.4 °F 30.11 in Calm   2.0 mph 99 % 0.04 in
15:02 64.8 °F 64.4 °F 30.11 in Calm   3.0 mph 99 % 0.03 in
15:07 64.6 °F 64.2 °F 30.11 in ENE 1.0 mph 3.0 mph 99 % 0.02 in
15:12 64.6 °F 64.2 °F 30.11 in ENE 2.0 mph 3.0 mph 99 % 0.02 in
15:17 64.6 °F 64.2 °F 30.11 in Calm   3.0 mph 99 % 0.03 in
15:22 64.8 °F 64.4 °F 30.11 in North 2.0 mph 3.0 mph 99 % 0.03 in
15:27 64.8 °F 64.4 °F 30.11 in Calm   3.0 mph 99 % 0.03 in
15:32 64.6 °F 64.2 °F 30.11 in Calm   3.0 mph 99 % 0.03 in
15:37 64.6 °F 64.2 °F 30.11 in Calm   2.0 mph 99 % 0.03 in
15:42 64.6 °F 64.2 °F 30.10 in NNE 2.0 mph 2.0 mph 99 % 0.04 in
15:47 64.8 °F 64.4 °F 30.10 in Calm   2.0 mph 99 % 0.04 in
15:52 64.9 °F 64.6 °F 30.11 in Calm   3.0 mph 99 % 0.04 in
15:57 64.9 °F 64.6 °F 30.11 in Calm   3.0 mph 99 % 0.04 in
16:02 64.9 °F 64.6 °F 30.10 in Calm   3.0 mph 99 % 0.04 in
16:07 64.8 °F 64.2 °F 30.10 in Calm   4.0 mph 98 % 0.04 in
16:12 64.8 °F 64.2 °F 30.10 in Calm   4.0 mph 98 % 0.03 in
16:17 64.8 °F 64.4 °F 30.11 in NE 1.0 mph 4.0 mph 99 % 0.02 in
16:22 64.8 °F 64.4 °F 30.11 in Calm   4.0 mph 99 % 0.02 in
16:27 64.8 °F 64.2 °F 30.10 in NNE 1.0 mph 5.0 mph 98 % 0.02 in
16:32 64.6 °F 64.2 °F 30.10 in NW 1.0 mph 5.0 mph 99 % 0.02 in
16:37 64.6 °F 64.2 °F 30.11 in NNE 2.0 mph 5.0 mph 99 % 0.02 in
16:42 64.6 °F 64.2 °F 30.11 in NE 1.0 mph 3.0 mph 99 % 0.01 in
16:47 64.6 °F 64.0 °F 30.11 in Calm   4.0 mph 98 % 0.01 in
16:52 64.6 °F 64.0 °F 30.11 in Calm   4.0 mph 98 % 0.00 in
16:57 64.6 °F 64.0 °F 30.11 in Calm   4.0 mph 98 % 0.00 in
17:02 64.6 °F 64.0 °F 30.11 in Calm   4.0 mph 98 % 0.00 in
17:07 64.4 °F 63.9 °F 30.11 in Calm   2.0 mph 98 % 0.00 in
17:12 64.4 °F 63.9 °F 30.12 in Calm   1.0 mph 98 % 0.00 in
17:17 64.2 °F 63.7 °F 30.12 in Calm   2.0 mph 98 % 0.00 in
17:22 64.2 °F 63.7 °F 30.12 in NE 1.0 mph 2.0 mph 98 % 0.00 in
17:27 64.2 °F 63.7 °F 30.12 in Calm   2.0 mph 98 % 0.00 in
17:32 64.2 °F 63.7 °F 30.12 in Calm   2.0 mph 98 % 0.00 in
17:37 64.0 °F 63.5 °F 30.12 in Calm   2.0 mph 98 % 0.00 in
17:42 64.0 °F 63.5 °F 30.12 in Calm   2.0 mph 98 % 0.00 in
17:47 64.0 °F 63.7 °F 30.12 in Calm   2.0 mph 99 % 0.00 in
17:52 64.0 °F 63.5 °F 30.12 in Calm   2.0 mph 98 % 0.00 in
17:57 64.0 °F 63.7 °F 30.12 in NE 1.0 mph 1.0 mph 99 % 0.00 in
18:02 63.9 °F 63.3 °F 30.12 in Calm   2.0 mph 98 % 0.00 in
18:07 63.9 °F 63.5 °F 30.13 in Calm   2.0 mph 99 % 0.01 in
18:12 63.9 °F 63.5 °F 30.13 in Calm   2.0 mph 99 % 0.01 in
18:17 63.9 °F 63.5 °F 30.12 in Calm   1.0 mph 99 % 0.02 in
18:22 63.9 °F 63.5 °F 30.13 in Calm   2.0 mph 99 % 0.02 in
18:27 63.9 °F 63.5 °F 30.13 in Calm   2.0 mph 99 % 0.02 in
18:32 63.7 °F 63.3 °F 30.13 in Calm   2.0 mph 99 % 0.02 in
18:37 63.7 °F 63.3 °F 30.13 in Calm   1.0 mph 99 % 0.02 in
18:42 63.7 °F 63.3 °F 30.14 in Calm   1.0 mph 99 % 0.02 in
18:47 63.7 °F 63.3 °F 30.14 in Calm   1.0 mph 99 % 0.02 in
18:52 63.7 °F 63.3 °F 30.14 in Calm   1.0 mph 99 % 0.02 in
18:57 63.7 °F 63.3 °F 30.14 in Calm   1.0 mph 99 % 0.02 in
19:02 63.7 °F 63.3 °F 30.14 in Calm   1.0 mph 99 % 0.02 in
19:07 63.7 °F 63.3 °F 30.14 in Calm   1.0 mph 99 % 0.01 in
19:12 63.7 °F 63.3 °F 30.14 in Calm   1.0 mph 99 % 0.01 in
19:17 63.7 °F 63.3 °F 30.14 in Calm   1.0 mph 99 % 0.00 in
19:22 63.7 °F 63.3 °F 30.15 in Calm   1.0 mph 99 % 0.00 in
19:27 63.5 °F 63.1 °F 30.16 in Calm   1.0 mph 99 % 0.00 in
19:32 63.5 °F 63.1 °F 30.16 in Calm   1.0 mph 99 % 0.00 in
19:37 63.5 °F 63.1 °F 30.15 in Calm   1.0 mph 99 % 0.00 in
19:42 63.5 °F 63.1 °F 30.16 in NW 1.0 mph 1.0 mph 99 % 0.00 in
19:47 63.7 °F 63.3 °F 30.16 in NW 1.0 mph 1.0 mph 99 % 0.00 in
19:52 63.5 °F 63.1 °F 30.15 in Calm   1.0 mph 99 % 0.00 in
19:57 63.5 °F 63.1 °F 30.16 in Calm   1.0 mph 99 % 0.00 in
20:02 63.5 °F 63.1 °F 30.16 in Calm   1.0 mph 99 % 0.00 in
20:07 63.3 °F 63.0 °F 30.16 in NW 1.0 mph 1.0 mph 99 % 0.00 in
20:12 63.3 °F 63.0 °F 30.16 in NW 1.0 mph 1.0 mph 99 % 0.00 in
20:17 63.3 °F 63.0 °F 30.16 in Calm   1.0 mph 99 % 0.00 in
20:22 63.1 °F 62.8 °F 30.16 in East 1.0 mph 1.0 mph 99 % 0.00 in
20:27 63.0 °F 62.6 °F 30.16 in Calm   1.0 mph 99 % 0.00 in
20:32 62.8 °F 62.4 °F 30.16 in Calm   1.0 mph 99 % 0.00 in
20:37 62.6 °F 62.2 °F 30.16 in Calm   1.0 mph 99 % 0.00 in
20:42 62.6 °F 62.2 °F 30.16 in Calm   1.0 mph 99 % 0.00 in
20:47 62.6 °F 62.2 °F 30.16 in Calm   1.0 mph 99 % 0.00 in
20:52 62.6 °F 62.2 °F 30.16 in Calm   1.0 mph 99 % 0.00 in
20:57 62.6 °F 62.2 °F 30.16 in Calm   1.0 mph 99 % 0.00 in
21:02 62.8 °F 62.4 °F 30.16 in NNE 1.0 mph 1.0 mph 99 % 0.00 in
21:07 62.8 °F 62.4 °F 30.16 in Calm   1.0 mph 99 % 0.00 in
21:12 62.8 °F 62.4 °F 30.16 in Calm   1.0 mph 99 % 0.00 in
21:17 62.6 °F 62.2 °F 30.16 in Calm   1.0 mph 99 % 0.00 in
21:22 62.4 °F 62.1 °F 30.16 in Calm   1.0 mph 99 % 0.00 in
21:27 62.6 °F 62.2 °F 30.16 in Calm   1.0 mph 99 % 0.00 in
21:32 62.6 °F 62.2 °F 30.16 in Calm   1.0 mph 99 % 0.00 in
21:37 62.6 °F 62.2 °F 30.16 in NNW 1.0 mph 1.0 mph 99 % 0.00 in
21:42 62.8 °F 62.4 °F 30.16 in NNW 1.0 mph 1.0 mph 99 % 0.00 in
21:47 62.8 °F 62.4 °F 30.16 in Calm   2.0 mph 99 % 0.00 in
21:52 62.8 °F 62.4 °F 30.16 in Calm   2.0 mph 99 % 0.00 in
21:57 62.8 °F 62.4 °F 30.16 in NNW 1.0 mph 2.0 mph 99 % 0.00 in
22:02 63.0 °F 62.6 °F 30.16 in Calm   2.0 mph 99 % 0.00 in
22:07 63.0 °F 62.6 °F 30.16 in Calm   2.0 mph 99 % 0.00 in
22:12 63.0 °F 62.6 °F 30.17 in NNW 1.0 mph 2.0 mph 99 % 0.00 in
22:17 63.0 °F 62.6 °F 30.17 in Calm   2.0 mph 99 % 0.00 in
22:22 63.0 °F 62.6 °F 30.17 in Calm   1.0 mph 99 % 0.00 in
22:27 63.0 °F 62.6 °F 30.17 in NW 1.0 mph 1.0 mph 99 % 0.00 in
22:32 63.0 °F 62.6 °F 30.17 in Calm   2.0 mph 99 % 0.00 in
22:37 63.0 °F 62.6 °F 30.17 in NNW 1.0 mph 2.0 mph 99 % 0.00 in
22:42 63.0 °F 62.6 °F 30.17 in Calm   2.0 mph 99 % 0.00 in
22:47 63.0 °F 62.6 °F 30.17 in NW 1.0 mph 1.0 mph 99 % 0.00 in
22:52 63.0 °F 62.6 °F 30.17 in Calm   2.0 mph 99 % 0.00 in
22:57 63.0 °F 62.6 °F 30.17 in North 1.0 mph 2.0 mph 99 % 0.00 in
23:02 63.0 °F 62.6 °F 30.17 in WNW 1.0 mph 2.0 mph 99 % 0.00 in
23:07 63.0 °F 62.6 °F 30.17 in NW 1.0 mph 3.0 mph 99 % 0.00 in
23:12 63.0 °F 62.6 °F 30.17 in Calm   3.0 mph 99 % 0.00 in
23:18 62.8 °F 62.4 °F 30.17 in NNW 2.0 mph 3.0 mph 99 % 0.00 in
23:23 62.8 °F 62.4 °F 30.17 in Calm   2.0 mph 99 % 0.00 in
23:28 62.8 °F 62.4 °F 30.17 in NW 1.0 mph 3.0 mph 99 % 0.00 in
23:33 62.8 °F 62.4 °F 30.17 in NW 1.0 mph 3.0 mph 99 % 0.00 in
23:38 62.6 °F 62.2 °F 30.17 in Calm   3.0 mph 99 % 0.00 in
23:43 62.6 °F 62.2 °F 30.17 in NW 1.0 mph 3.0 mph 99 % 0.00 in
23:48 62.6 °F 62.2 °F 30.17 in NNW 2.0 mph 3.0 mph 99 % 0.01 in
23:53 62.4 °F 62.4 °F 30.17 in Calm   3.0 mph 100 % 0.01 in
23:58 62.4 °F 62.4 °F 30.17 in Calm   3.0 mph 100 % 0.01 in
Spring, Texas: Villages of Bridgestone
Compliments of Weather Underground - 3 mb

Script developed by  Jim McMurry - jmcmurry@mwt.net Adapted for the template by  Wim van der Kuil - Leuven-Template.eu

You find our weather info also at:

UK Metoffice

WeatherCloud

Weather Underground

Mid-South Weather Network

AWEKAS

Citizen Weather Observer Program (CWOP)

HAMweather, WeatherForYou, PWS Weather

Equipment we use:

Weather-station
Davis Vantage Vue

Weather-program
Meteohub

Weather-server
Debian 7.9 x86 (Guest)

Provider
DreamHost

Davis Vantage Vue

Meteohub

Debian 7.9 x86 (Guest)

DreamHost